Ana Sayfa
METAR-TAF:

METAR-TAF

Havaalanları :

Katowice, Polonya

Enlem: 50-28-27N, Boylam: 019-04-48E, yükseklik: 284 m

Güncel hava durumu gözlemi

Rapor saat 05:30 UTC de 31 dakika önce yapıldı.
Rüzgar değişken yönden 1 kt
Sıcaklık -8°C
Nem 92%
Basınç 1023 hPa
Görüş mesafesi 10 km veya daha fazla
1500 m altında bulut yok ve kümülonimbus yok

METAR: EPKT 010530Z VRB01KT CAVOK M08/M09 Q1023

Saat: 08:01 (06:01 UTC)

Tahmin

Rapor saat 05:30 UTC de 31 dakika önce yapıldı.
Ayın 01'si saat 06 UTC'den ayın 02'si saat 06 UTC'ye kadar geçerli Tahmin
Rüzgar değişken yönden 2 kt
Görüş mesafesi 10 km veya daha fazla
1500 m altında bulut yok ve kümülonimbus yok
Dönüşüyor
ayın 01'si saat 07 UTC'den ayın 01'si saat 09 UTC'ye kadar
Rüzgar batıdan 10 kt
Geçici
ayın 01'si saat 09 UTC'den ayın 01'si saat 16 UTC'ye kadar
4000 ft yükseklikte parçalı bulutlu, Yükselen kümülüs.

TAF: EPKT 010530Z 0106/0206 VRB02KT CAVOK BECMG 0107/0109 27010KT TEMPO 0109/0116 SCT040TCU

4.000'den fazla havaalanı için hava durumu gözlemleri ve tahminleri (METAR ve TAF raporları).

Kullanılabilir istasyonlar harita üzerinde sarı ve kırmızı noktalarla gösterilir.

İstasyonun adını görmek için fareyi noktanın üzerinde gezdirin.

Sonrasında hava gözlem ve tahminlerini görmek için tıklayın.

Haritayı değiştirmek için: yaklaştırmak için siyah artı işaretli yeşil düğmeye ve uzaklaştırmak için de eksi işaretli düğmeye hızla tıklayın; bitişik haritalar için yeşil okları kullanın.


METAR-TAF: